Time;durP1;ratioP1;P1;durP2;ratioP2;P2;SDS_P1;SDS_P2;PMS_P1;PMS_P2;Temp;Humidity;BMP_temperature;BMP_pressure;BME280_temperature;BME280_humidity;BME280_pressure;Samples;Min_cycle;Max_cycle;Signal;HPM_P1;HPM_P2
2023/05/09 00:01:42;;;;;;;50.47;26.50;;;14.90;99.90;;;;;;4952597;28;20050;-64
2023/05/09 00:04:08;;;;;;;45.42;25.75;;;14.90;99.90;;;;;;4979274;28;20711;-65
2023/05/09 00:06:34;;;;;;;44.58;24.08;;;14.90;99.90;;;;;;4976304;28;20060;-64
2023/05/09 00:08:59;;;;;;;36.83;22.17;;;14.90;99.90;;;;;;4980526;28;20061;-64
2023/05/09 00:11:25;;;;;;;44.33;23.75;;;14.80;99.90;;;;;;4991094;28;20037;-65
2023/05/09 00:13:52;;;;;;;42.70;23.48;;;14.80;99.90;;;;;;4991548;28;20063;-65
2023/05/09 00:16:19;;;;;;;44.65;24.25;;;14.80;99.90;;;;;;4990998;28;20121;-65
2023/05/09 00:18:46;;;;;;;45.55;24.50;;;14.80;99.90;;;;;;4988342;28;20055;-64
2023/05/09 00:21:11;;;;;;;41.25;22.70;;;14.80;99.90;;;;;;4992563;28;20076;-65
2023/05/09 00:23:37;;;;;;;38.83;22.35;;;14.80;99.90;;;;;;4989723;28;20244;-64
2023/05/09 00:26:03;;;;;;;44.95;24.50;;;14.80;99.90;;;;;;4989262;28;20054;-64
2023/05/09 00:28:29;;;;;;;49.00;25.10;;;14.70;99.90;;;;;;5007527;28;20061;-64
2023/05/09 00:30:55;;;;;;;50.90;25.55;;;14.80;99.90;;;;;;4990581;28;20341;-65
2023/05/09 00:33:21;;;;;;;48.47;25.38;;;14.70;99.90;;;;;;4993825;28;20163;-65
2023/05/09 00:35:47;;;;;;;40.58;23.33;;;14.70;99.90;;;;;;4990034;28;20893;-64
2023/05/09 00:38:13;;;;;;;46.50;24.25;;;14.70;99.90;;;;;;4989071;28;20712;-65
2023/05/09 00:40:39;;;;;;;47.47;24.52;;;14.70;99.90;;;;;;4991359;28;20049;-64
2023/05/09 00:43:04;;;;;;;48.65;25.25;;;14.70;99.90;;;;;;5003672;28;20037;-65
2023/05/09 00:45:30;;;;;;;51.58;25.33;;;14.70;99.90;;;;;;4970455;28;28436;-65
2023/05/09 00:47:56;;;;;;;52.65;24.95;;;14.70;99.90;;;;;;4988468;28;20499;-63
2023/05/09 00:50:23;;;;;;;47.83;25.30;;;14.70;99.90;;;;;;4990111;28;22146;-65
2023/05/09 00:52:50;;;;;;;49.03;24.83;;;14.70;99.90;;;;;;4986637;28;20050;-65
2023/05/09 00:55:17;;;;;;;48.50;26.17;;;14.70;99.90;;;;;;4975018;28;20512;-63
2023/05/09 00:57:43;;;;;;;49.25;26.17;;;14.70;99.90;;;;;;4972817;28;20043;-65
2023/05/09 01:00:13;;;;;;;50.22;25.70;;;14.70;99.90;;;;;;4990554;28;20489;-65
2023/05/09 01:02:46;;;;;;;50.63;25.70;;;14.70;99.90;;;;;;4961395;28;20050;-65
2023/05/09 01:05:12;;;;;;;54.47;26.23;;;14.70;99.90;;;;;;5005531;28;20060;-65
2023/05/09 01:08:05;;;;;;;50.75;27.55;;;14.60;99.90;;;;;;5004316;28;20120;-65
2023/05/09 01:10:49;;;;;;;53.63;27.00;;;14.60;99.90;;;;;;4965136;28;20049;-64
2023/05/09 01:13:37;;;;;;;49.03;25.55;;;14.70;99.90;;;;;;4989235;28;20046;-64
2023/05/09 01:16:25;;;;;;;45.55;24.45;;;14.60;99.90;;;;;;4990404;28;20102;-65
2023/05/09 01:18:59;;;;;;;50.72;26.15;;;14.70;99.90;;;;;;4993281;28;20053;-65
2023/05/09 01:21:31;;;;;;;47.88;26.65;;;14.70;99.90;;;;;;4989448;28;20088;-65
2023/05/09 01:24:14;;;;;;;55.83;29.58;;;14.70;99.90;;;;;;4989623;28;20053;-65
2023/05/09 01:27:04;;;;;;;56.58;29.05;;;14.70;99.90;;;;;;4970096;28;21983;-65
2023/05/09 01:29:41;;;;;;;63.30;29.25;;;14.60;99.90;;;;;;4986560;28;20041;-65
2023/05/09 01:32:14;;;;;;;57.83;28.95;;;14.60;99.90;;;;;;4989283;28;20042;-65
2023/05/09 01:34:43;;;;;;;59.47;29.60;;;14.60;99.90;;;;;;4988462;28;20103;-64
2023/05/09 01:37:12;;;;;;;53.03;27.70;;;14.60;99.90;;;;;;4986887;28;20124;-65
2023/05/09 01:39:40;;;;;;;59.92;31.02;;;14.60;99.90;;;;;;4982848;28;20080;-64
2023/05/09 01:42:09;;;;;;;63.17;31.42;;;14.60;99.90;;;;;;4977315;28;20247;-65
2023/05/09 01:44:39;;;;;;;55.25;29.63;;;14.70;99.90;;;;;;4988286;28;20168;-65
2023/05/09 01:47:07;;;;;;;58.22;30.13;;;14.70;99.90;;;;;;4974084;28;20125;-63
2023/05/09 01:49:36;;;;;;;53.45;27.95;;;14.70;99.90;;;;;;4982467;28;20049;-65
2023/05/09 01:52:07;;;;;;;58.47;31.23;;;14.70;99.90;;;;;;4984414;28;20041;-64
2023/05/09 01:54:34;;;;;;;54.97;30.48;;;14.70;99.90;;;;;;4986342;28;20574;-65
2023/05/09 01:57:03;;;;;;;54.97;29.98;;;14.70;99.90;;;;;;4986810;28;20049;-65
2023/05/09 01:59:30;;;;;;;54.38;29.42;;;14.70;99.90;;;;;;4985597;28;20057;-65
2023/05/09 02:01:57;;;;;;;57.15;30.48;;;14.70;99.90;;;;;;4987151;28;20080;-65
2023/05/09 02:04:23;;;;;;;63.05;32.85;;;14.70;99.90;;;;;;4983651;28;20147;-64
2023/05/09 02:06:50;;;;;;;59.65;31.17;;;14.70;99.90;;;;;;4973667;28;20171;-65
2023/05/09 02:09:19;;;;;;;55.78;30.70;;;14.70;99.90;;;;;;4985020;28;20038;-64
2023/05/09 02:11:46;;;;;;;59.65;31.50;;;14.70;99.90;;;;;;4992141;28;20122;-63
2023/05/09 02:14:12;;;;;;;53.97;30.13;;;14.70;99.90;;;;;;4995091;28;20046;-64
2023/05/09 02:16:38;;;;;;;57.42;30.60;;;14.70;99.90;;;;;;4986811;28;21134;-65
2023/05/09 02:19:05;;;;;;;55.22;30.83;;;14.80;99.90;;;;;;4985443;28;20133;-65
2023/05/09 02:21:30;;;;;;;59.72;31.80;;;14.80;99.90;;;;;;4988010;28;20056;-65
2023/05/09 02:23:56;;;;;;;54.53;30.98;;;14.80;99.90;;;;;;4984859;28;20133;-63
2023/05/09 02:26:24;;;;;;;55.55;30.25;;;14.80;99.90;;;;;;4982300;28;20094;-64
2023/05/09 02:28:51;;;;;;;58.42;31.25;;;14.80;99.90;;;;;;4984496;28;20048;-64
2023/05/09 02:31:19;;;;;;;58.67;32.38;;;14.80;99.90;;;;;;4969592;28;20056;-65
2023/05/09 02:33:48;;;;;;;62.65;34.00;;;14.80;99.90;;;;;;4978438;28;20152;-64
2023/05/09 02:36:16;;;;;;;67.70;34.60;;;14.80;99.90;;;;;;4988160;28;20046;-65
2023/05/09 02:38:43;;;;;;;65.43;32.42;;;14.80;99.90;;;;;;4986889;28;20054;-65
2023/05/09 02:41:16;;;;;;;66.32;33.53;;;14.80;99.90;;;;;;4968479;28;20056;-65
2023/05/09 02:43:42;;;;;;;66.95;33.83;;;14.80;99.90;;;;;;5002421;28;20052;-65
2023/05/09 02:46:08;;;;;;;65.20;33.92;;;14.80;99.90;;;;;;4987815;28;20045;-64
2023/05/09 02:48:34;;;;;;;62.50;33.10;;;14.70;99.90;;;;;;4986326;28;20045;-64
2023/05/09 02:51:00;;;;;;;67.00;33.15;;;14.70;99.90;;;;;;4987380;28;20049;-64
2023/05/09 02:53:26;;;;;;;65.07;33.85;;;14.80;99.90;;;;;;4985938;28;20041;-64
2023/05/09 02:55:52;;;;;;;63.17;32.83;;;14.70;99.90;;;;;;4960110;28;20136;-65
2023/05/09 02:58:19;;;;;;;68.18;34.25;;;14.80;99.90;;;;;;4992503;28;20431;-64
2023/05/09 03:00:45;;;;;;;62.35;33.03;;;14.70;99.90;;;;;;4986251;28;20049;-65
2023/05/09 03:03:11;;;;;;;64.97;34.03;;;14.70;99.90;;;;;;4987908;28;20057;-64
2023/05/09 03:05:36;;;;;;;71.35;34.40;;;14.70;99.90;;;;;;5002471;28;20125;-64
2023/05/09 03:08:02;;;;;;;56.83;31.25;;;14.70;99.90;;;;;;4995779;28;20132;-65
2023/05/09 03:10:28;;;;;;;55.03;31.10;;;14.70;99.90;;;;;;4988097;28;20041;-65
2023/05/09 03:12:54;;;;;;;60.20;32.33;;;14.70;99.90;;;;;;4988950;28;20037;-65
2023/05/09 03:15:20;;;;;;;57.95;31.52;;;14.60;99.90;;;;;;4981643;28;20435;-64
2023/05/09 03:17:46;;;;;;;65.80;34.30;;;14.70;99.90;;;;;;4977470;28;20046;-64
2023/05/09 03:20:12;;;;;;;63.15;33.05;;;14.70;99.90;;;;;;4981946;28;20248;-65
2023/05/09 03:22:38;;;;;;;67.88;35.55;;;14.70;99.90;;;;;;4980404;28;20423;-64
2023/05/09 03:25:05;;;;;;;59.78;32.22;;;14.60;99.90;;;;;;4982779;28;20092;-64
2023/05/09 03:27:31;;;;;;;54.38;30.55;;;14.70;99.90;;;;;;4991768;28;20377;-65
2023/05/09 03:29:56;;;;;;;56.83;31.77;;;14.70;99.90;;;;;;4980512;28;20045;-65
2023/05/09 03:32:22;;;;;;;59.53;32.08;;;14.70;99.90;;;;;;4989653;28;20045;-64
2023/05/09 03:34:48;;;;;;;62.88;33.78;;;14.70;99.90;;;;;;4970493;28;20045;-65
2023/05/09 03:37:14;;;;;;;60.28;32.00;;;14.60;99.90;;;;;;4977005;28;20137;-65
2023/05/09 03:39:40;;;;;;;70.43;35.30;;;14.60;99.90;;;;;;4971400;28;21771;-64
2023/05/09 03:42:06;;;;;;;60.45;32.90;;;14.60;99.90;;;;;;4991236;28;20053;-65
2023/05/09 03:44:31;;;;;;;57.83;31.13;;;14.60;99.90;;;;;;4988757;28;20083;-64
2023/05/09 03:46:57;;;;;;;61.97;32.20;;;14.60;99.90;;;;;;4970623;28;20045;-64
2023/05/09 03:49:23;;;;;;;68.43;35.65;;;14.60;99.90;;;;;;4975973;28;20046;-65
2023/05/09 03:51:49;;;;;;;58.67;32.67;;;14.60;99.90;;;;;;4987926;28;20399;-64
2023/05/09 03:54:14;;;;;;;58.97;30.50;;;14.60;99.90;;;;;;4988738;28;20068;-65
2023/05/09 03:56:40;;;;;;;54.85;30.55;;;14.60;99.90;;;;;;4969165;28;20041;-64
2023/05/09 03:59:06;;;;;;;63.28;34.97;;;14.60;99.90;;;;;;4988183;28;20084;-64
2023/05/09 04:01:32;;;;;;;60.25;32.17;;;14.60;99.90;;;;;;4986328;28;20053;-65
2023/05/09 04:03:57;;;;;;;56.17;32.25;;;14.60;99.90;;;;;;4983636;28;20045;-64
2023/05/09 04:06:23;;;;;;;64.57;33.55;;;14.60;99.90;;;;;;4990369;28;20504;-64
2023/05/09 04:08:49;;;;;;;60.75;32.67;;;14.70;99.90;;;;;;4975181;28;20091;-64
2023/05/09 04:11:15;;;;;;;59.45;31.67;;;14.70;99.90;;;;;;4990494;28;20048;-65
2023/05/09 04:13:40;;;;;;;58.63;33.08;;;14.60;99.90;;;;;;4987970;28;20041;-65
2023/05/09 04:16:06;;;;;;;60.78;31.55;;;14.70;99.90;;;;;;4975277;28;20090;-66
2023/05/09 04:18:32;;;;;;;69.57;36.65;;;14.70;99.90;;;;;;4985813;28;20045;-65
2023/05/09 04:20:58;;;;;;;79.82;39.47;;;14.70;99.90;;;;;;4977997;28;20052;-65
2023/05/09 04:23:23;;;;;;;83.13;39.55;;;14.70;99.90;;;;;;4992679;28;20468;-64
2023/05/09 04:25:53;;;;;;;82.05;40.92;;;14.70;99.90;;;;;;4962734;28;20039;-66
2023/05/09 04:28:19;;;;;;;91.03;42.38;;;14.70;99.90;;;;;;4986012;28;20049;-65
2023/05/09 04:30:44;;;;;;;87.93;44.30;;;14.70;99.90;;;;;;4978239;28;20053;-66
2023/05/09 04:33:10;;;;;;;92.95;46.45;;;14.80;99.90;;;;;;5005059;28;20604;-66
2023/05/09 04:35:37;;;;;;;88.80;45.83;;;14.80;99.90;;;;;;4974282;28;20053;-66
2023/05/09 04:38:03;;;;;;;93.32;47.08;;;14.80;99.90;;;;;;4986053;28;20081;-64
2023/05/09 04:40:29;;;;;;;92.75;45.92;;;14.80;99.90;;;;;;5002673;28;20662;-64
2023/05/09 04:42:56;;;;;;;103.30;48.15;;;14.80;99.90;;;;;;4973580;28;20046;-65
2023/05/09 04:45:22;;;;;;;97.30;47.25;;;14.80;99.90;;;;;;4983693;28;20969;-64
2023/05/09 04:47:48;;;;;;;104.25;49.45;;;14.90;99.90;;;;;;4963116;28;20056;-65
2023/05/09 04:50:13;;;;;;;98.13;47.47;;;14.90;99.90;;;;;;4972567;28;20042;-65
2023/05/09 04:52:39;;;;;;;95.47;47.60;;;14.90;99.90;;;;;;4980580;28;20389;-65
2023/05/09 04:55:05;;;;;;;100.95;49.10;;;14.90;99.90;;;;;;4988848;28;20419;-66
2023/05/09 04:57:31;;;;;;;98.85;49.55;;;14.90;99.90;;;;;;4990903;28;20041;-65
2023/05/09 04:59:57;;;;;;;97.47;47.88;;;14.90;99.90;;;;;;4961526;28;20484;-64
2023/05/09 05:02:24;;;;;;;99.90;49.10;;;15.00;99.90;;;;;;4989869;28;20132;-65
2023/05/09 05:04:50;;;;;;;109.47;50.40;;;15.00;99.90;;;;;;4982175;28;20048;-65
2023/05/09 05:07:15;;;;;;;104.55;50.75;;;15.00;99.90;;;;;;4986654;28;20041;-64
2023/05/09 05:09:41;;;;;;;102.60;50.35;;;15.00;99.90;;;;;;4976432;28;20049;-65
2023/05/09 05:12:07;;;;;;;94.57;48.13;;;15.10;99.90;;;;;;4937919;28;20510;-66
2023/05/09 05:14:33;;;;;;;97.88;48.83;;;15.10;99.90;;;;;;4975187;28;20046;-65
2023/05/09 05:16:59;;;;;;;101.65;51.47;;;15.10;99.90;;;;;;4999042;28;20510;-65
2023/05/09 05:19:25;;;;;;;109.78;48.67;;;15.10;99.90;;;;;;4971401;28;20045;-65
2023/05/09 05:21:51;;;;;;;100.93;49.28;;;15.20;99.90;;;;;;4988345;28;20053;-65
2023/05/09 05:24:16;;;;;;;98.93;49.60;;;15.20;99.90;;;;;;4992096;28;20060;-65
2023/05/09 05:26:42;;;;;;;100.53;50.97;;;15.30;99.90;;;;;;4987702;28;20554;-65
2023/05/09 05:29:08;;;;;;;92.85;48.65;;;15.30;99.90;;;;;;5003442;28;20045;-64
2023/05/09 05:31:33;;;;;;;102.15;50.67;;;15.30;99.90;;;;;;4992713;28;20452;-65
2023/05/09 05:33:59;;;;;;;110.15;52.38;;;15.30;99.90;;;;;;4980205;28;20045;-65
2023/05/09 05:36:25;;;;;;;117.90;52.92;;;15.30;99.90;;;;;;5002471;28;20104;-64
2023/05/09 05:38:51;;;;;;;117.40;53.80;;;15.30;99.90;;;;;;4987167;28;20037;-64
2023/05/09 05:41:16;;;;;;;112.32;52.42;;;15.30;99.90;;;;;;4994614;28;20132;-65
2023/05/09 05:43:42;;;;;;;114.50;53.03;;;15.40;99.90;;;;;;4974602;28;20046;-65
2023/05/09 05:46:09;;;;;;;107.35;52.45;;;15.30;99.90;;;;;;4987153;28;20053;-66
2023/05/09 05:48:35;;;;;;;109.10;52.95;;;15.30;99.90;;;;;;4989199;28;20093;-64
2023/05/09 05:51:00;;;;;;;108.90;53.55;;;15.30;99.90;;;;;;4990386;28;20165;-64
2023/05/09 05:53:26;;;;;;;110.97;52.88;;;15.30;99.90;;;;;;4975435;28;20088;-65
2023/05/09 05:55:52;;;;;;;103.50;50.95;;;15.40;99.90;;;;;;4981055;28;20051;-65
2023/05/09 05:58:17;;;;;;;113.13;52.55;;;15.40;99.90;;;;;;4989022;28;20045;-65
2023/05/09 06:00:43;;;;;;;103.32;52.22;;;15.40;99.90;;;;;;4987668;28;20057;-65
2023/05/09 06:03:12;;;;;;;108.22;52.53;;;15.40;99.90;;;;;;4975594;28;20050;-65
2023/05/09 06:05:45;;;;;;;123.65;51.58;;;15.40;99.90;;;;;;5007507;28;20053;-64
2023/05/09 06:08:11;;;;;;;103.07;51.33;;;15.40;99.90;;;;;;4983626;28;20049;-64
2023/05/09 06:10:36;;;;;;;94.75;50.22;;;15.50;99.90;;;;;;4989050;28;20052;-63
2023/05/09 06:13:02;;;;;;;93.75;49.58;;;15.50;99.90;;;;;;4934521;28;20077;-63
2023/05/09 06:15:28;;;;;;;91.15;49.10;;;15.50;99.90;;;;;;4971589;28;20966;-63
2023/05/09 06:17:53;;;;;;;94.45;49.67;;;15.60;99.90;;;;;;4956058;28;20121;-63
2023/05/09 06:20:19;;;;;;;88.22;48.20;;;15.60;99.90;;;;;;4965088;28;20087;-63
2023/05/09 06:22:45;;;;;;;93.22;48.40;;;15.60;99.90;;;;;;4979804;28;20053;-63
2023/05/09 06:25:11;;;;;;;84.55;48.78;;;15.70;99.90;;;;;;4974412;28;20048;-63
2023/05/09 06:27:37;;;;;;;90.28;47.97;;;15.70;99.90;;;;;;4988559;28;20065;-63
2023/05/09 06:30:04;;;;;;;78.10;46.00;;;15.80;99.90;;;;;;4980103;28;20041;-63
2023/05/09 06:32:29;;;;;;;79.97;45.45;;;15.80;99.90;;;;;;4990903;28;20049;-63
2023/05/09 06:34:55;;;;;;;77.45;44.58;;;15.90;99.90;;;;;;4970902;28;20079;-63
2023/05/09 06:37:21;;;;;;;72.15;43.65;;;15.90;99.90;;;;;;4977751;28;20458;-63
2023/05/09 06:39:47;;;;;;;75.30;43.38;;;15.90;99.90;;;;;;4974137;28;20056;-63
2023/05/09 06:42:12;;;;;;;74.28;42.22;;;15.90;99.90;;;;;;4993470;28;20067;-63
2023/05/09 06:44:38;;;;;;;70.97;42.20;;;16.00;99.90;;;;;;4992448;28;20118;-62
2023/05/09 06:47:04;;;;;;;70.40;40.78;;;16.00;99.90;;;;;;4989728;28;20142;-63
2023/05/09 06:49:29;;;;;;;67.30;40.60;;;16.00;99.90;;;;;;4991571;28;20046;-63
2023/05/09 06:51:55;;;;;;;69.88;41.05;;;16.10;99.90;;;;;;4980877;28;20060;-63
2023/05/09 06:54:21;;;;;;;69.60;41.17;;;16.10;99.90;;;;;;4994419;28;20420;-63
2023/05/09 06:56:47;;;;;;;68.28;40.05;;;16.10;99.90;;;;;;4982876;28;20052;-63
2023/05/09 06:59:15;;;;;;;73.10;40.63;;;16.10;99.90;;;;;;4994068;28;20049;-63
2023/05/09 07:01:40;;;;;;;66.65;38.60;;;16.10;99.90;;;;;;4982111;28;20042;-63
2023/05/09 07:04:06;;;;;;;61.50;37.17;;;16.10;99.90;;;;;;4984939;28;20088;-62
2023/05/09 07:06:32;;;;;;;62.78;37.42;;;16.20;99.90;;;;;;4992254;28;20045;-62
2023/05/09 07:08:58;;;;;;;57.85;35.45;;;16.20;99.90;;;;;;4993718;28;20573;-62
2023/05/09 07:11:24;;;;;;;58.00;35.83;;;16.20;99.90;;;;;;4979405;28;20042;-63
2023/05/09 07:13:50;;;;;;;55.67;34.15;;;16.20;99.90;;;;;;4994839;28;20041;-62
2023/05/09 07:16:17;;;;;;;59.78;35.10;;;16.20;99.90;;;;;;4982089;28;21126;-63
2023/05/09 07:18:43;;;;;;;57.95;36.08;;;16.20;99.90;;;;;;4997036;28;20463;-63
2023/05/09 07:21:09;;;;;;;58.70;34.40;;;16.30;99.90;;;;;;4996250;28;20113;-63
2023/05/09 07:23:34;;;;;;;57.80;34.72;;;16.30;99.90;;;;;;4988488;28;20047;-63
2023/05/09 07:26:00;;;;;;;61.65;34.63;;;16.30;99.90;;;;;;4993698;28;20045;-63
2023/05/09 07:28:26;;;;;;;63.92;35.38;;;16.30;99.90;;;;;;4997003;28;20060;-63
2023/05/09 07:30:55;;;;;;;60.60;35.13;;;16.30;99.90;;;;;;4991041;28;20030;-63
2023/05/09 07:33:21;;;;;;;62.42;36.63;;;16.30;99.90;;;;;;5008184;28;20125;-63
2023/05/09 07:35:46;;;;;;;64.22;35.95;;;16.30;99.90;;;;;;4983015;28;20060;-62
2023/05/09 07:38:13;;;;;;;63.97;38.00;;;16.30;99.90;;;;;;5014814;28;20049;-63
2023/05/09 07:40:40;;;;;;;65.50;37.95;;;16.40;99.90;;;;;;4990637;28;20045;-63
2023/05/09 07:43:05;;;;;;;65.15;36.95;;;16.40;99.90;;;;;;4993200;28;20497;-63
2023/05/09 07:45:31;;;;;;;67.00;37.35;;;16.50;99.90;;;;;;4994840;28;20042;-63
2023/05/09 07:50:25;;;;;;;69.85;39.35;;;16.60;99.90;;;;;;4958517;28;20788;-62
2023/05/09 07:52:51;;;;;;;65.47;37.88;;;16.60;99.90;;;;;;4947497;28;20574;-63
2023/05/09 07:55:17;;;;;;;71.30;39.53;;;16.70;99.90;;;;;;4949938;28;20052;-63
2023/05/09 07:57:42;;;;;;;71.97;38.80;;;16.70;99.90;;;;;;4951677;28;20541;-62
2023/05/09 08:00:09;;;;;;;70.63;39.33;;;16.70;99.90;;;;;;4949841;28;20043;-62
2023/05/09 08:02:35;;;;;;;75.97;39.67;;;16.80;99.90;;;;;;4939244;28;20776;-62
2023/05/09 08:05:01;;;;;;;74.68;39.92;;;16.80;99.90;;;;;;4951257;28;20042;-63
2023/05/09 08:07:26;;;;;;;67.95;38.33;;;16.80;99.90;;;;;;4975364;28;20042;-62
2023/05/09 08:09:52;;;;;;;72.05;37.70;;;16.80;99.90;;;;;;4950276;28;20042;-63
2023/05/09 08:12:18;;;;;;;74.80;39.38;;;16.90;99.90;;;;;;4952657;28;20050;-63
2023/05/09 08:14:43;;;;;;;70.82;39.47;;;17.00;99.90;;;;;;4956933;28;20817;-63
2023/05/09 08:17:09;;;;;;;77.72;38.78;;;16.90;99.90;;;;;;4943982;28;20043;-63
2023/05/09 08:19:35;;;;;;;70.68;38.60;;;16.90;99.90;;;;;;4964026;28;20046;-63
2023/05/09 08:22:01;;;;;;;74.75;40.00;;;16.90;99.90;;;;;;4939075;28;20053;-63
2023/05/09 08:24:26;;;;;;;68.57;38.30;;;16.90;99.90;;;;;;4964690;28;20520;-62
2023/05/09 08:26:52;;;;;;;67.07;37.25;;;17.00;99.90;;;;;;4972873;28;20047;-63
2023/05/09 08:29:18;;;;;;;73.47;37.83;;;17.00;99.90;;;;;;4953619;28;20755;-63
2023/05/09 08:31:43;;;;;;;72.63;38.72;;;17.00;99.90;;;;;;4950914;28;20497;-63
2023/05/09 08:34:09;;;;;;;72.60;39.10;;;17.00;99.90;;;;;;4956221;28;20043;-63
2023/05/09 08:36:35;;;;;;;70.25;39.15;;;17.00;99.90;;;;;;4952148;28;20066;-63
2023/05/09 08:39:01;;;;;;;75.35;39.35;;;17.00;99.90;;;;;;4949462;28;20109;-63
2023/05/09 08:41:27;;;;;;;69.40;38.40;;;17.10;99.90;;;;;;4928163;28;20410;-63
2023/05/09 08:43:53;;;;;;;71.00;38.65;;;17.10;99.90;;;;;;4966166;28;20543;-62
2023/05/09 08:46:29;;;;;;;71.57;38.22;;;17.10;99.90;;;;;;4955869;28;20046;-63
2023/05/09 08:48:56;;;;;;;62.90;35.85;;;17.10;99.90;;;;;;4950895;28;20066;-63
2023/05/09 08:51:22;;;;;;;69.32;38.70;;;17.10;99.90;;;;;;4937895;28;20221;-63
2023/05/09 08:53:49;;;;;;;62.25;36.30;;;17.10;99.90;;;;;;4946246;28;20408;-63
2023/05/09 08:56:15;;;;;;;69.80;37.75;;;17.10;99.90;;;;;;4932996;28;20479;-63
2023/05/09 08:58:41;;;;;;;69.70;37.85;;;17.10;99.90;;;;;;4944957;28;24443;-63
2023/05/09 09:01:08;;;;;;;73.82;38.85;;;17.10;99.90;;;;;;4947310;28;20069;-63
2023/05/09 09:03:37;;;;;;;69.60;38.35;;;17.10;99.90;;;;;;4946592;28;21489;-63
2023/05/09 09:06:06;;;;;;;67.85;37.72;;;17.20;99.90;;;;;;4946507;28;20046;-62
2023/05/09 09:08:34;;;;;;;64.22;36.47;;;17.10;99.90;;;;;;4948674;28;20437;-63
2023/05/09 09:11:00;;;;;;;68.40;37.67;;;17.20;99.90;;;;;;4932050;28;20046;-64
2023/05/09 09:13:29;;;;;;;68.95;37.88;;;17.20;99.90;;;;;;4929695;28;20058;-63
2023/05/09 09:15:57;;;;;;;65.25;36.65;;;17.30;99.90;;;;;;4943793;28;20936;-62
2023/05/09 09:18:28;;;;;;;68.68;38.17;;;17.40;99.90;;;;;;4938217;28;20055;-63
2023/05/09 09:21:04;;;;;;;64.55;37.65;;;17.40;99.90;;;;;;4949173;28;20125;-64
2023/05/09 09:23:31;;;;;;;60.78;35.60;;;17.50;99.90;;;;;;4951946;28;20501;-63
2023/05/09 09:26:01;;;;;;;60.58;36.03;;;17.50;99.90;;;;;;4958863;28;20249;-63
2023/05/09 09:28:27;;;;;;;60.85;34.92;;;17.50;99.90;;;;;;4922306;28;20101;-63
2023/05/09 09:30:53;;;;;;;64.05;35.10;;;17.50;99.90;;;;;;4933214;28;20134;-64
2023/05/09 09:33:20;;;;;;;59.90;34.92;;;17.50;99.90;;;;;;4945711;28;20047;-64
2023/05/09 09:35:51;;;;;;;60.22;35.83;;;17.60;99.90;;;;;;4944418;28;20050;-63
2023/05/09 09:38:21;;;;;;;56.67;35.25;;;17.60;99.90;;;;;;4940121;28;20571;-64
2023/05/09 09:40:57;;;;;;;63.90;35.47;;;17.70;99.90;;;;;;4930021;28;20054;-63
2023/05/09 09:43:30;;;;;;;57.55;34.58;;;17.70;99.90;;;;;;4936964;28;20071;-63
2023/05/09 09:45:56;;;;;;;56.97;34.30;;;17.70;99.90;;;;;;4924474;28;20042;-63
2023/05/09 09:48:50;;;;;;;60.05;35.53;;;17.70;99.90;;;;;;4951949;28;20049;-63
2023/05/09 09:51:17;;;;;;;57.70;35.20;;;17.80;99.90;;;;;;4955664;28;20062;-63
2023/05/09 09:53:43;;;;;;;54.67;32.85;;;17.70;99.90;;;;;;4946945;28;20047;-62
2023/05/09 09:56:09;;;;;;;53.55;32.28;;;17.70;99.90;;;;;;4947433;28;20050;-63
2023/05/09 09:58:35;;;;;;;58.35;33.95;;;17.70;99.90;;;;;;4930464;28;20105;-61
2023/05/09 10:01:18;;;;;;;56.40;33.67;;;17.70;99.90;;;;;;4942408;28;20141;-63
2023/05/09 10:03:45;;;;;;;49.40;31.42;;;17.70;99.90;;;;;;4936869;28;20042;-62
2023/05/09 10:06:15;;;;;;;51.13;31.75;;;17.70;99.90;;;;;;4952797;28;20582;-62
2023/05/09 10:08:45;;;;;;;51.15;31.55;;;17.70;99.90;;;;;;4951121;28;20062;-61
2023/05/09 10:11:11;;;;;;;53.70;31.48;;;17.70;99.90;;;;;;4957867;28;20097;-63
2023/05/09 10:13:37;;;;;;;47.17;29.52;;;17.80;99.90;;;;;;4945743;28;20378;-62
2023/05/09 10:16:04;;;;;;;45.50;28.85;;;17.80;99.90;;;;;;4933315;28;20045;-61
2023/05/09 10:18:30;;;;;;;55.97;29.55;;;17.90;99.90;;;;;;4947332;28;20050;-63
2023/05/09 10:21:02;;;;;;;52.17;29.80;;;18.00;99.90;;;;;;4960208;28;20401;-62
2023/05/09 10:23:30;;;;;;;47.08;29.73;;;18.20;99.90;;;;;;4953249;28;20043;-62
2023/05/09 10:26:26;;;;;;;47.95;28.52;;;18.30;99.90;;;;;;4949941;28;20046;-61
2023/05/09 10:29:00;;;;;;;46.63;29.52;;;18.40;99.90;;;;;;4938967;28;20536;-62
2023/05/09 10:31:28;;;;;;;42.10;26.00;;;18.50;99.90;;;;;;4923088;28;20057;-63
2023/05/09 10:33:57;;;;;;;44.42;26.20;;;18.60;99.90;;;;;;4944226;28;20683;-61
2023/05/09 10:36:23;;;;;;;40.30;25.52;;;18.70;99.90;;;;;;4929807;28;20362;-61
2023/05/09 10:38:52;;;;;;;41.90;24.48;;;18.70;99.90;;;;;;4948621;28;20084;-62
2023/05/09 10:41:20;;;;;;;39.38;24.10;;;18.70;99.90;;;;;;4935270;28;20054;-63
2023/05/09 10:43:47;;;;;;;35.72;23.15;;;18.70;99.90;;;;;;4945221;28;20050;-62
2023/05/09 10:46:13;;;;;;;36.97;22.35;;;18.70;99.90;;;;;;4932255;28;20366;-63
2023/05/09 10:48:41;;;;;;;33.05;21.92;;;18.70;99.90;;;;;;4927024;28;20047;-61
2023/05/09 10:51:08;;;;;;;31.15;20.95;;;18.70;99.90;;;;;;4929325;28;20764;-62
2023/05/09 10:53:44;;;;;;;35.25;21.33;;;18.70;99.90;;;;;;4941176;28;20055;-62
2023/05/09 10:56:25;;;;;;;31.35;19.98;;;18.70;99.90;;;;;;4944721;28;20046;-63
2023/05/09 10:58:52;;;;;;;32.25;19.88;;;18.70;99.90;;;;;;4945272;28;20057;-61
2023/05/09 11:01:35;;;;;;;30.10;20.55;;;18.70;99.90;;;;;;4942994;28;20517;-64
2023/05/09 11:04:11;;;;;;;29.95;19.55;;;18.70;99.90;;;;;;4942492;28;20784;-62
2023/05/09 11:06:40;;;;;;;28.08;19.52;;;18.70;99.90;;;;;;4948397;28;20100;-63
2023/05/09 11:09:28;;;;;;;27.20;18.10;;;18.70;99.90;;;;;;4969184;28;20050;-61
2023/05/09 11:12:09;;;;;;;27.08;18.92;;;18.80;99.90;;;;;;4951002;28;20039;-61
2023/05/09 11:14:43;;;;;;;23.75;17.60;;;18.80;99.90;;;;;;4951673;28;20401;-62
2023/05/09 11:17:21;;;;;;;25.55;17.00;;;18.80;99.90;;;;;;4947828;28;20129;-63
2023/05/09 11:19:47;;;;;;;21.40;15.70;;;18.80;99.90;;;;;;4951029;28;20374;-63
2023/05/09 11:22:26;;;;;;;19.20;14.23;;;18.80;99.90;;;;;;4949045;28;20074;-61
2023/05/09 11:24:58;;;;;;;26.55;15.30;;;18.90;99.90;;;;;;4945494;28;20050;-62
2023/05/09 11:27:28;;;;;;;21.05;15.15;;;18.90;99.90;;;;;;4958836;28;20559;-61
2023/05/09 11:29:56;;;;;;;21.08;14.35;;;18.90;99.90;;;;;;4956874;28;20040;-62
2023/05/09 11:32:33;;;;;;;24.70;14.20;;;18.90;99.90;;;;;;4939696;28;20042;-62
2023/05/09 11:35:06;;;;;;;17.60;12.85;;;18.90;99.90;;;;;;4957293;28;20060;-63
2023/05/09 11:37:32;;;;;;;19.38;13.60;;;19.00;99.90;;;;;;4957717;28;20055;-62
2023/05/09 11:40:04;;;;;;;18.33;13.10;;;19.00;99.90;;;;;;4972026;28;20050;-64
2023/05/09 11:42:30;;;;;;;20.65;13.32;;;19.10;99.90;;;;;;4959720;28;20050;-64
2023/05/09 11:44:57;;;;;;;22.30;13.20;;;19.00;99.90;;;;;;4940111;28;20081;-63
2023/05/09 11:47:24;;;;;;;20.08;13.90;;;19.10;99.90;;;;;;4932258;28;20125;-63
2023/05/09 11:49:50;;;;;;;20.70;13.13;;;19.10;99.90;;;;;;4925643;28;20513;-62
2023/05/09 11:52:18;;;;;;;21.88;14.15;;;19.20;99.90;;;;;;4955905;28;20125;-62
2023/05/09 11:54:44;;;;;;;18.00;13.15;;;19.20;99.90;;;;;;4946461;28;20087;-63
2023/05/09 11:57:15;;;;;;;18.55;13.20;;;19.20;99.90;;;;;;4955781;28;20042;-63
2023/05/09 11:59:42;;;;;;;18.38;13.18;;;19.20;99.90;;;;;;4973483;28;20039;-62
2023/05/09 12:02:09;;;;;;;18.10;13.75;;;19.20;99.90;;;;;;4941373;28;20049;-64
2023/05/09 12:04:35;;;;;;;19.52;13.82;;;19.20;99.90;;;;;;4952272;28;20370;-62
2023/05/09 12:07:01;;;;;;;16.80;13.43;;;19.20;99.90;;;;;;4944601;28;20047;-62
2023/05/09 12:09:32;;;;;;;21.55;13.48;;;19.10;99.90;;;;;;4946151;28;20058;-64
2023/05/09 12:11:58;;;;;;;18.85;13.93;;;19.10;99.90;;;;;;4970482;28;20176;-63
2023/05/09 12:14:28;;;;;;;17.80;13.93;;;19.00;99.90;;;;;;4933051;28;20568;-63
2023/05/09 12:16:54;;;;;;;19.15;12.82;;;19.00;99.90;;;;;;4942636;28;20090;-63
2023/05/09 12:19:22;;;;;;;23.85;14.10;;;19.10;99.90;;;;;;4955785;28;20046;-63
2023/05/09 12:21:47;;;;;;;19.20;14.02;;;19.20;99.90;;;;;;4962287;28;20084;-63
2023/05/09 12:24:18;;;;;;;21.02;13.85;;;19.30;99.90;;;;;;4957597;28;20035;-63
2023/05/09 12:26:45;;;;;;;17.80;13.52;;;19.40;99.90;;;;;;4951902;28;20043;-62
2023/05/09 12:29:11;;;;;;;18.10;13.65;;;19.40;99.90;;;;;;4964447;28;20396;-63
2023/05/09 12:31:37;;;;;;;17.75;13.57;;;19.40;99.90;;;;;;4962739;28;20049;-63